Crater Lake, Oregon
Current Conditions -  °F | °C
As of 9:12 AM on Monday 22 Dec 2014 (Local Time) from KLMT Reporting Station
Overcast Overcast  
Wind Chill: 10°   Ceiling: 4800
Heat Index: 10°   Visibility: 10mi
Dew Point:   Wind: 16mph
Humidity: 77%   Direction: 260°W
Pressure: 30.29"   Gusts: NA
Location:  42.58°N, 121.86°W
Report Text: KLMT 221712Z 26014KT 10SM SCT030 SCT036 OVC048 10/06 A3029 RMK AO2 T01000061
Loading
Personal Weather Stations






























Interactive Weather Map New forecast layout! Learn more

10-Day Weather Forecast

Advertisements
Track Severe Weather on mobile